sensor_id;sensor_type;location;lat;lon;timestamp;P1;durP1;ratioP1;P2;durP2;ratioP2
38465;SDS011;24244;51.950;5.902;2023-07-02T00:02:16;5.20;;;1.77;;
38465;SDS011;24244;51.950;5.902;2023-07-02T00:04:44;4.38;;;1.42;;
38465;SDS011;24244;51.950;5.902;2023-07-02T00:07:11;6.22;;;2.05;;
38465;SDS011;24244;51.950;5.902;2023-07-02T00:09:38;5.38;;;2.20;;
38465;SDS011;24244;51.950;5.902;2023-07-02T00:12:05;5.50;;;2.15;;
38465;SDS011;24244;51.950;5.902;2023-07-02T00:14:34;5.85;;;1.88;;
38465;SDS011;24244;51.950;5.902;2023-07-02T00:17:00;6.20;;;2.20;;
38465;SDS011;24244;51.950;5.902;2023-07-02T00:19:28;5.55;;;2.53;;
38465;SDS011;24244;51.950;5.902;2023-07-02T00:21:54;7.20;;;2.90;;
38465;SDS011;24244;51.950;5.902;2023-07-02T00:24:21;5.43;;;2.60;;
38465;SDS011;24244;51.950;5.902;2023-07-02T00:26:50;9.43;;;2.83;;
38465;SDS011;24244;51.950;5.902;2023-07-02T00:29:16;7.05;;;2.50;;
38465;SDS011;24244;51.950;5.902;2023-07-02T00:31:45;6.63;;;3.00;;
38465;SDS011;24244;51.950;5.902;2023-07-02T00:34:12;7.95;;;3.22;;
38465;SDS011;24244;51.950;5.902;2023-07-02T00:36:39;5.38;;;2.65;;
38465;SDS011;24244;51.950;5.902;2023-07-02T00:39:08;7.40;;;3.03;;
38465;SDS011;24244;51.950;5.902;2023-07-02T00:41:35;10.43;;;3.50;;
38465;SDS011;24244;51.950;5.902;2023-07-02T00:44:03;8.20;;;3.22;;
38465;SDS011;24244;51.950;5.902;2023-07-02T00:46:30;9.15;;;3.85;;
38465;SDS011;24244;51.950;5.902;2023-07-02T00:48:58;5.78;;;3.00;;
38465;SDS011;24244;51.950;5.902;2023-07-02T00:51:28;13.10;;;4.68;;
38465;SDS011;24244;51.950;5.902;2023-07-02T00:53:56;7.47;;;3.30;;
38465;SDS011;24244;51.950;5.902;2023-07-02T00:56:25;6.30;;;2.85;;
38465;SDS011;24244;51.950;5.902;2023-07-02T00:58:54;6.97;;;2.63;;
38465;SDS011;24244;51.950;5.902;2023-07-02T01:01:25;8.00;;;3.17;;
38465;SDS011;24244;51.950;5.902;2023-07-02T01:04:02;9.57;;;3.90;;
38465;SDS011;24244;51.950;5.902;2023-07-02T01:08:59;5.53;;;2.65;;
38465;SDS011;24244;51.950;5.902;2023-07-02T01:11:27;5.53;;;2.33;;
38465;SDS011;24244;51.950;5.902;2023-07-02T01:13:57;6.70;;;2.90;;
38465;SDS011;24244;51.950;5.902;2023-07-02T01:16:29;6.82;;;2.40;;
38465;SDS011;24244;51.950;5.902;2023-07-02T01:19:01;6.85;;;2.92;;
38465;SDS011;24244;51.950;5.902;2023-07-02T01:21:32;7.72;;;3.28;;
38465;SDS011;24244;51.950;5.902;2023-07-02T01:23:59;6.55;;;2.90;;
38465;SDS011;24244;51.950;5.902;2023-07-02T01:26:28;6.70;;;2.72;;
38465;SDS011;24244;51.950;5.902;2023-07-02T01:28:57;7.43;;;3.00;;
38465;SDS011;24244;51.950;5.902;2023-07-02T01:31:24;6.20;;;2.78;;
38465;SDS011;24244;51.950;5.902;2023-07-02T01:33:51;6.25;;;2.78;;
38465;SDS011;24244;51.950;5.902;2023-07-02T01:36:19;6.50;;;2.55;;
38465;SDS011;24244;51.950;5.902;2023-07-02T01:38:47;8.65;;;3.05;;
38465;SDS011;24244;51.950;5.902;2023-07-02T01:41:15;7.18;;;3.05;;
38465;SDS011;24244;51.950;5.902;2023-07-02T01:43:42;5.30;;;2.95;;
38465;SDS011;24244;51.950;5.902;2023-07-02T01:46:08;8.98;;;3.05;;
38465;SDS011;24244;51.950;5.902;2023-07-02T01:48:35;7.45;;;3.67;;
38465;SDS011;24244;51.950;5.902;2023-07-02T01:51:02;8.32;;;3.40;;
38465;SDS011;24244;51.950;5.902;2023-07-02T01:53:29;8.43;;;3.20;;
38465;SDS011;24244;51.950;5.902;2023-07-02T01:55:57;6.70;;;3.10;;
38465;SDS011;24244;51.950;5.902;2023-07-02T01:58:25;7.70;;;3.38;;
38465;SDS011;24244;51.950;5.902;2023-07-02T02:00:52;9.18;;;3.75;;
38465;SDS011;24244;51.950;5.902;2023-07-02T02:03:19;10.27;;;3.60;;
38465;SDS011;24244;51.950;5.902;2023-07-02T02:05:46;8.07;;;3.10;;
38465;SDS011;24244;51.950;5.902;2023-07-02T02:08:13;10.35;;;3.80;;
38465;SDS011;24244;51.950;5.902;2023-07-02T02:10:40;6.80;;;3.28;;
38465;SDS011;24244;51.950;5.902;2023-07-02T02:13:08;8.25;;;3.47;;
38465;SDS011;24244;51.950;5.902;2023-07-02T02:15:35;9.27;;;3.17;;
38465;SDS011;24244;51.950;5.902;2023-07-02T02:18:03;7.97;;;3.35;;
38465;SDS011;24244;51.950;5.902;2023-07-02T02:20:30;8.57;;;3.40;;
38465;SDS011;24244;51.950;5.902;2023-07-02T02:22:57;9.98;;;3.75;;
38465;SDS011;24244;51.950;5.902;2023-07-02T02:25:24;8.05;;;3.30;;
38465;SDS011;24244;51.950;5.902;2023-07-02T02:27:51;7.95;;;3.25;;
38465;SDS011;24244;51.950;5.902;2023-07-02T02:30:19;11.32;;;4.60;;
38465;SDS011;24244;51.950;5.902;2023-07-02T02:32:46;8.43;;;2.95;;
38465;SDS011;24244;51.950;5.902;2023-07-02T02:35:13;8.85;;;3.60;;
38465;SDS011;24244;51.950;5.902;2023-07-02T02:37:40;9.10;;;3.17;;
38465;SDS011;24244;51.950;5.902;2023-07-02T02:40:07;8.43;;;3.63;;
38465;SDS011;24244;51.950;5.902;2023-07-02T02:42:35;8.18;;;3.28;;
38465;SDS011;24244;51.950;5.902;2023-07-02T02:45:03;7.40;;;3.35;;
38465;SDS011;24244;51.950;5.902;2023-07-02T02:47:37;9.05;;;3.42;;
38465;SDS011;24244;51.950;5.902;2023-07-02T02:50:05;9.65;;;3.50;;
38465;SDS011;24244;51.950;5.902;2023-07-02T02:52:33;7.88;;;3.67;;
38465;SDS011;24244;51.950;5.902;2023-07-02T02:55:00;8.02;;;3.38;;
38465;SDS011;24244;51.950;5.902;2023-07-02T02:57:27;8.40;;;3.05;;
38465;SDS011;24244;51.950;5.902;2023-07-02T02:59:54;7.55;;;3.30;;
38465;SDS011;24244;51.950;5.902;2023-07-02T03:02:20;7.57;;;3.55;;
38465;SDS011;24244;51.950;5.902;2023-07-02T03:04:48;7.50;;;3.55;;
38465;SDS011;24244;51.950;5.902;2023-07-02T03:07:15;9.93;;;3.22;;
38465;SDS011;24244;51.950;5.902;2023-07-02T03:09:42;6.78;;;3.42;;
38465;SDS011;24244;51.950;5.902;2023-07-02T03:12:09;6.40;;;3.08;;
38465;SDS011;24244;51.950;5.902;2023-07-02T03:14:36;7.97;;;3.53;;
38465;SDS011;24244;51.950;5.902;2023-07-02T03:17:03;8.13;;;3.15;;
38465;SDS011;24244;51.950;5.902;2023-07-02T03:19:30;7.90;;;3.10;;
38465;SDS011;24244;51.950;5.902;2023-07-02T03:21:58;7.47;;;3.83;;
38465;SDS011;24244;51.950;5.902;2023-07-02T03:24:25;8.63;;;3.50;;
38465;SDS011;24244;51.950;5.902;2023-07-02T03:26:52;8.80;;;3.38;;
38465;SDS011;24244;51.950;5.902;2023-07-02T03:29:19;8.95;;;3.47;;
38465;SDS011;24244;51.950;5.902;2023-07-02T03:31:46;8.35;;;3.20;;
38465;SDS011;24244;51.950;5.902;2023-07-02T03:34:13;7.40;;;3.13;;
38465;SDS011;24244;51.950;5.902;2023-07-02T03:36:40;7.45;;;3.05;;
38465;SDS011;24244;51.950;5.902;2023-07-02T03:39:08;8.43;;;3.63;;
38465;SDS011;24244;51.950;5.902;2023-07-02T03:41:36;7.43;;;3.70;;
38465;SDS011;24244;51.950;5.902;2023-07-02T03:44:03;7.25;;;2.97;;
38465;SDS011;24244;51.950;5.902;2023-07-02T03:46:29;6.90;;;3.38;;
38465;SDS011;24244;51.950;5.902;2023-07-02T03:48:57;10.63;;;3.50;;
38465;SDS011;24244;51.950;5.902;2023-07-02T03:51:24;7.70;;;3.60;;
38465;SDS011;24244;51.950;5.902;2023-07-02T03:53:51;7.45;;;3.65;;
38465;SDS011;24244;51.950;5.902;2023-07-02T03:56:19;7.05;;;2.78;;
38465;SDS011;24244;51.950;5.902;2023-07-02T03:58:46;7.90;;;2.85;;
38465;SDS011;24244;51.950;5.902;2023-07-02T04:01:13;12.48;;;3.72;;
38465;SDS011;24244;51.950;5.902;2023-07-02T04:03:42;6.28;;;2.80;;
38465;SDS011;24244;51.950;5.902;2023-07-02T04:06:15;13.00;;;3.45;;
38465;SDS011;24244;51.950;5.902;2023-07-02T04:08:42;6.65;;;2.95;;
38465;SDS011;24244;51.950;5.902;2023-07-02T04:11:10;8.77;;;3.15;;
38465;SDS011;24244;51.950;5.902;2023-07-02T04:13:38;7.00;;;2.92;;
38465;SDS011;24244;51.950;5.902;2023-07-02T04:16:06;6.15;;;2.42;;
38465;SDS011;24244;51.950;5.902;2023-07-02T04:18:33;8.23;;;3.50;;
38465;SDS011;24244;51.950;5.902;2023-07-02T04:21:00;7.10;;;2.83;;
38465;SDS011;24244;51.950;5.902;2023-07-02T04:23:28;8.52;;;3.13;;
38465;SDS011;24244;51.950;5.902;2023-07-02T04:25:55;8.57;;;3.22;;
38465;SDS011;24244;51.950;5.902;2023-07-02T04:28:43;7.68;;;3.20;;
38465;SDS011;24244;51.950;5.902;2023-07-02T04:31:10;8.85;;;3.15;;
38465;SDS011;24244;51.950;5.902;2023-07-02T04:33:36;7.68;;;2.78;;
38465;SDS011;24244;51.950;5.902;2023-07-02T04:36:03;9.00;;;3.20;;
38465;SDS011;24244;51.950;5.902;2023-07-02T04:38:31;7.88;;;3.17;;
38465;SDS011;24244;51.950;5.902;2023-07-02T04:40:57;9.93;;;2.95;;
38465;SDS011;24244;51.950;5.902;2023-07-02T04:43:28;7.30;;;3.05;;
38465;SDS011;24244;51.950;5.902;2023-07-02T04:45:59;7.75;;;3.40;;
38465;SDS011;24244;51.950;5.902;2023-07-02T04:48:26;6.90;;;2.55;;
38465;SDS011;24244;51.950;5.902;2023-07-02T04:50:53;9.00;;;3.45;;
38465;SDS011;24244;51.950;5.902;2023-07-02T04:53:19;10.35;;;3.55;;
38465;SDS011;24244;51.950;5.902;2023-07-02T04:55:46;8.02;;;3.40;;
38465;SDS011;24244;51.950;5.902;2023-07-02T04:58:13;7.35;;;3.25;;
38465;SDS011;24244;51.950;5.902;2023-07-02T05:00:40;8.40;;;3.13;;
38465;SDS011;24244;51.950;5.902;2023-07-02T05:03:08;9.43;;;4.00;;
38465;SDS011;24244;51.950;5.902;2023-07-02T05:05:35;8.68;;;3.35;;
38465;SDS011;24244;51.950;5.902;2023-07-02T05:08:01;8.02;;;3.10;;
38465;SDS011;24244;51.950;5.902;2023-07-02T05:10:31;8.73;;;3.00;;
38465;SDS011;24244;51.950;5.902;2023-07-02T05:12:58;8.00;;;3.10;;
38465;SDS011;24244;51.950;5.902;2023-07-02T05:15:25;7.78;;;3.05;;
38465;SDS011;24244;51.950;5.902;2023-07-02T05:17:52;9.65;;;3.25;;
38465;SDS011;24244;51.950;5.902;2023-07-02T05:20:21;9.00;;;3.38;;
38465;SDS011;24244;51.950;5.902;2023-07-02T05:22:47;7.80;;;3.17;;
38465;SDS011;24244;51.950;5.902;2023-07-02T05:25:14;8.68;;;3.65;;
38465;SDS011;24244;51.950;5.902;2023-07-02T05:27:41;7.07;;;3.00;;
38465;SDS011;24244;51.950;5.902;2023-07-02T05:30:11;8.13;;;3.03;;
38465;SDS011;24244;51.950;5.902;2023-07-02T05:32:39;8.70;;;3.22;;
38465;SDS011;24244;51.950;5.902;2023-07-02T05:35:07;8.68;;;3.72;;
38465;SDS011;24244;51.950;5.902;2023-07-02T05:37:36;8.55;;;3.40;;
38465;SDS011;24244;51.950;5.902;2023-07-02T05:40:03;9.18;;;3.42;;
38465;SDS011;24244;51.950;5.902;2023-07-02T05:42:30;7.65;;;2.97;;
38465;SDS011;24244;51.950;5.902;2023-07-02T05:44:57;10.63;;;3.28;;
38465;SDS011;24244;51.950;5.902;2023-07-02T05:47:24;9.25;;;3.38;;
38465;SDS011;24244;51.950;5.902;2023-07-02T05:49:53;10.55;;;3.55;;
38465;SDS011;24244;51.950;5.902;2023-07-02T05:52:20;9.38;;;3.55;;
38465;SDS011;24244;51.950;5.902;2023-07-02T05:54:50;9.45;;;3.75;;
38465;SDS011;24244;51.950;5.902;2023-07-02T05:57:17;8.48;;;3.13;;
38465;SDS011;24244;51.950;5.902;2023-07-02T05:59:43;7.68;;;2.90;;
38465;SDS011;24244;51.950;5.902;2023-07-02T06:02:10;10.10;;;3.17;;
38465;SDS011;24244;51.950;5.902;2023-07-02T06:04:37;8.52;;;3.45;;
38465;SDS011;24244;51.950;5.902;2023-07-02T06:07:04;8.65;;;3.35;;
38465;SDS011;24244;51.950;5.902;2023-07-02T06:09:31;11.25;;;3.22;;
38465;SDS011;24244;51.950;5.902;2023-07-02T06:12:00;12.10;;;4.15;;
38465;SDS011;24244;51.950;5.902;2023-07-02T06:14:27;8.32;;;3.25;;
38465;SDS011;24244;51.950;5.902;2023-07-02T06:16:54;9.43;;;3.15;;
38465;SDS011;24244;51.950;5.902;2023-07-02T06:19:23;12.60;;;3.17;;
38465;SDS011;24244;51.950;5.902;2023-07-02T06:21:50;7.38;;;3.10;;
38465;SDS011;24244;51.950;5.902;2023-07-02T06:24:18;8.35;;;3.53;;
38465;SDS011;24244;51.950;5.902;2023-07-02T06:26:45;10.70;;;3.47;;
38465;SDS011;24244;51.950;5.902;2023-07-02T06:29:13;10.30;;;3.08;;
38465;SDS011;24244;51.950;5.902;2023-07-02T06:31:40;8.57;;;2.97;;
38465;SDS011;24244;51.950;5.902;2023-07-02T06:34:07;11.07;;;3.83;;
38465;SDS011;24244;51.950;5.902;2023-07-02T06:36:35;8.25;;;2.92;;
38465;SDS011;24244;51.950;5.902;2023-07-02T06:39:01;7.38;;;3.30;;
38465;SDS011;24244;51.950;5.902;2023-07-02T06:41:28;9.90;;;3.17;;
38465;SDS011;24244;51.950;5.902;2023-07-02T06:43:57;9.25;;;3.13;;
38465;SDS011;24244;51.950;5.902;2023-07-02T06:46:25;9.48;;;2.90;;
38465;SDS011;24244;51.950;5.902;2023-07-02T06:48:52;6.22;;;2.83;;
38465;SDS011;24244;51.950;5.902;2023-07-02T06:51:19;10.05;;;3.10;;
38465;SDS011;24244;51.950;5.902;2023-07-02T06:53:47;7.20;;;2.67;;
38465;SDS011;24244;51.950;5.902;2023-07-02T06:56:14;9.23;;;3.13;;
38465;SDS011;24244;51.950;5.902;2023-07-02T06:58:42;8.82;;;3.90;;
38465;SDS011;24244;51.950;5.902;2023-07-02T07:01:09;7.25;;;2.92;;
38465;SDS011;24244;51.950;5.902;2023-07-02T07:03:37;8.23;;;2.85;;
38465;SDS011;24244;51.950;5.902;2023-07-02T07:06:04;8.02;;;3.17;;
38465;SDS011;24244;51.950;5.902;2023-07-02T07:08:31;11.45;;;3.40;;
38465;SDS011;24244;51.950;5.902;2023-07-02T07:10:58;7.20;;;2.92;;
38465;SDS011;24244;51.950;5.902;2023-07-02T07:13:25;9.10;;;2.83;;
38465;SDS011;24244;51.950;5.902;2023-07-02T07:15:51;7.22;;;2.95;;
38465;SDS011;24244;51.950;5.902;2023-07-02T07:18:18;6.50;;;2.35;;
38465;SDS011;24244;51.950;5.902;2023-07-02T07:20:47;7.30;;;2.70;;
38465;SDS011;24244;51.950;5.902;2023-07-02T07:23:14;7.47;;;3.55;;
38465;SDS011;24244;51.950;5.902;2023-07-02T07:25:41;9.00;;;2.80;;
38465;SDS011;24244;51.950;5.902;2023-07-02T07:28:08;9.18;;;2.50;;
38465;SDS011;24244;51.950;5.902;2023-07-02T07:30:41;10.18;;;3.17;;
38465;SDS011;24244;51.950;5.902;2023-07-02T07:33:08;6.35;;;2.38;;
38465;SDS011;24244;51.950;5.902;2023-07-02T07:35:35;7.88;;;3.22;;
38465;SDS011;24244;51.950;5.902;2023-07-02T07:38:03;10.93;;;2.85;;
38465;SDS011;24244;51.950;5.902;2023-07-02T07:40:29;6.90;;;2.45;;
38465;SDS011;24244;51.950;5.902;2023-07-02T07:42:56;5.03;;;2.55;;
38465;SDS011;24244;51.950;5.902;2023-07-02T07:45:23;5.93;;;2.30;;
38465;SDS011;24244;51.950;5.902;2023-07-02T07:47:50;7.05;;;3.00;;
38465;SDS011;24244;51.950;5.902;2023-07-02T07:50:17;7.20;;;2.83;;
38465;SDS011;24244;51.950;5.902;2023-07-02T07:52:43;7.80;;;2.83;;
38465;SDS011;24244;51.950;5.902;2023-07-02T07:55:11;7.05;;;2.65;;
38465;SDS011;24244;51.950;5.902;2023-07-02T07:57:38;8.55;;;2.92;;
38465;SDS011;24244;51.950;5.902;2023-07-02T08:00:05;8.10;;;3.15;;
38465;SDS011;24244;51.950;5.902;2023-07-02T08:02:38;9.18;;;3.38;;
38465;SDS011;24244;51.950;5.902;2023-07-02T08:05:07;7.97;;;3.50;;
38465;SDS011;24244;51.950;5.902;2023-07-02T08:07:34;8.85;;;2.92;;
38465;SDS011;24244;51.950;5.902;2023-07-02T08:10:01;7.25;;;3.00;;
38465;SDS011;24244;51.950;5.902;2023-07-02T08:12:30;6.65;;;3.15;;
38465;SDS011;24244;51.950;5.902;2023-07-02T08:14:57;6.53;;;2.55;;
38465;SDS011;24244;51.950;5.902;2023-07-02T08:17:23;6.07;;;2.42;;
38465;SDS011;24244;51.950;5.902;2023-07-02T08:19:50;7.13;;;3.10;;
38465;SDS011;24244;51.950;5.902;2023-07-02T08:22:17;6.35;;;2.60;;
38465;SDS011;24244;51.950;5.902;2023-07-02T08:24:44;6.97;;;2.40;;
38465;SDS011;24244;51.950;5.902;2023-07-02T08:27:11;8.00;;;2.47;;
38465;SDS011;24244;51.950;5.902;2023-07-02T08:29:41;9.18;;;2.80;;
38465;SDS011;24244;51.950;5.902;2023-07-02T08:32:08;6.55;;;2.72;;
38465;SDS011;24244;51.950;5.902;2023-07-02T08:34:35;6.90;;;2.60;;
38465;SDS011;24244;51.950;5.902;2023-07-02T08:37:02;7.35;;;2.95;;
38465;SDS011;24244;51.950;5.902;2023-07-02T08:39:29;7.30;;;2.85;;
38465;SDS011;24244;51.950;5.902;2023-07-02T08:41:56;9.32;;;2.67;;
38465;SDS011;24244;51.950;5.902;2023-07-02T08:44:24;8.82;;;2.85;;
38465;SDS011;24244;51.950;5.902;2023-07-02T08:46:54;6.97;;;2.75;;
38465;SDS011;24244;51.950;5.902;2023-07-02T08:49:23;6.72;;;2.53;;
38465;SDS011;24244;51.950;5.902;2023-07-02T08:51:50;6.45;;;2.65;;
38465;SDS011;24244;51.950;5.902;2023-07-02T08:54:17;9.38;;;3.45;;
38465;SDS011;24244;51.950;5.902;2023-07-02T08:56:44;7.70;;;2.55;;
38465;SDS011;24244;51.950;5.902;2023-07-02T08:59:12;6.30;;;2.67;;
38465;SDS011;24244;51.950;5.902;2023-07-02T09:01:45;8.38;;;2.88;;
38465;SDS011;24244;51.950;5.902;2023-07-02T09:04:16;9.70;;;2.88;;
38465;SDS011;24244;51.950;5.902;2023-07-02T09:06:44;9.57;;;2.88;;
38465;SDS011;24244;51.950;5.902;2023-07-02T09:09:11;6.00;;;2.03;;
38465;SDS011;24244;51.950;5.902;2023-07-02T09:11:46;6.88;;;2.72;;
38465;SDS011;24244;51.950;5.902;2023-07-02T09:14:26;7.28;;;3.08;;
38465;SDS011;24244;51.950;5.902;2023-07-02T09:17:03;7.32;;;2.65;;
38465;SDS011;24244;51.950;5.902;2023-07-02T09:19:32;7.00;;;3.03;;
38465;SDS011;24244;51.950;5.902;2023-07-02T09:22:00;7.32;;;2.50;;
38465;SDS011;24244;51.950;5.902;2023-07-02T09:24:29;5.60;;;2.40;;
38465;SDS011;24244;51.950;5.902;2023-07-02T09:26:59;4.85;;;2.13;;
38465;SDS011;24244;51.950;5.902;2023-07-02T09:29:27;9.05;;;2.78;;
38465;SDS011;24244;51.950;5.902;2023-07-02T09:31:55;7.00;;;2.38;;
38465;SDS011;24244;51.950;5.902;2023-07-02T09:34:29;5.28;;;2.08;;
38465;SDS011;24244;51.950;5.902;2023-07-02T09:36:58;5.88;;;2.70;;
38465;SDS011;24244;51.950;5.902;2023-07-02T09:39:26;5.47;;;2.08;;
38465;SDS011;24244;51.950;5.902;2023-07-02T09:41:55;5.50;;;2.10;;
38465;SDS011;24244;51.950;5.902;2023-07-02T09:44:25;6.82;;;2.40;;
38465;SDS011;24244;51.950;5.902;2023-07-02T09:46:56;6.85;;;2.65;;
38465;SDS011;24244;51.950;5.902;2023-07-02T09:49:27;6.53;;;2.03;;
38465;SDS011;24244;51.950;5.902;2023-07-02T09:51:59;5.18;;;2.05;;
38465;SDS011;24244;51.950;5.902;2023-07-02T09:54:28;5.07;;;2.20;;
38465;SDS011;24244;51.950;5.902;2023-07-02T09:56:56;6.78;;;1.90;;
38465;SDS011;24244;51.950;5.902;2023-07-02T09:59:24;5.72;;;2.22;;
38465;SDS011;24244;51.950;5.902;2023-07-02T10:01:51;5.53;;;2.45;;
38465;SDS011;24244;51.950;5.902;2023-07-02T10:04:18;5.82;;;1.95;;
38465;SDS011;24244;51.950;5.902;2023-07-02T10:06:49;3.83;;;1.40;;
38465;SDS011;24244;51.950;5.902;2023-07-02T10:09:19;5.07;;;1.77;;
38465;SDS011;24244;51.950;5.902;2023-07-02T10:11:46;4.82;;;2.05;;
38465;SDS011;24244;51.950;5.902;2023-07-02T10:14:13;7.93;;;2.75;;
38465;SDS011;24244;51.950;5.902;2023-07-02T10:16:50;6.80;;;2.28;;
38465;SDS011;24244;51.950;5.902;2023-07-02T10:19:18;5.43;;;2.20;;
38465;SDS011;24244;51.950;5.902;2023-07-02T10:21:45;5.40;;;1.83;;
38465;SDS011;24244;51.950;5.902;2023-07-02T10:24:13;4.40;;;1.60;;
38465;SDS011;24244;51.950;5.902;2023-07-02T10:26:53;3.22;;;1.42;;
38465;SDS011;24244;51.950;5.902;2023-07-02T10:29:22;5.85;;;1.80;;
38465;SDS011;24244;51.950;5.902;2023-07-02T10:31:49;5.85;;;2.00;;
38465;SDS011;24244;51.950;5.902;2023-07-02T10:34:27;5.05;;;2.10;;
38465;SDS011;24244;51.950;5.902;2023-07-02T10:36:55;5.40;;;2.13;;
38465;SDS011;24244;51.950;5.902;2023-07-02T10:39:22;5.18;;;1.73;;
38465;SDS011;24244;51.950;5.902;2023-07-02T10:41:49;3.40;;;1.42;;
38465;SDS011;24244;51.950;5.902;2023-07-02T10:44:17;4.35;;;1.48;;
38465;SDS011;24244;51.950;5.902;2023-07-02T10:46:45;5.68;;;2.00;;
38465;SDS011;24244;51.950;5.902;2023-07-02T10:49:12;4.10;;;1.77;;
38465;SDS011;24244;51.950;5.902;2023-07-02T10:51:39;4.40;;;1.70;;
38465;SDS011;24244;51.950;5.902;2023-07-02T10:54:06;4.88;;;2.00;;
38465;SDS011;24244;51.950;5.902;2023-07-02T10:56:34;6.78;;;1.80;;
38465;SDS011;24244;51.950;5.902;2023-07-02T10:59:01;5.63;;;1.95;;
38465;SDS011;24244;51.950;5.902;2023-07-02T11:01:30;5.55;;;1.85;;
38465;SDS011;24244;51.950;5.902;2023-07-02T11:03:58;5.28;;;1.70;;
38465;SDS011;24244;51.950;5.902;2023-07-02T11:06:26;5.97;;;2.22;;
38465;SDS011;24244;51.950;5.902;2023-07-02T11:08:53;4.82;;;1.83;;
38465;SDS011;24244;51.950;5.902;2023-07-02T11:11:23;5.60;;;1.50;;
38465;SDS011;24244;51.950;5.902;2023-07-02T11:13:51;5.22;;;1.80;;
38465;SDS011;24244;51.950;5.902;2023-07-02T11:16:19;6.43;;;1.83;;
38465;SDS011;24244;51.950;5.902;2023-07-02T11:18:51;5.57;;;1.50;;
38465;SDS011;24244;51.950;5.902;2023-07-02T11:21:19;3.67;;;1.70;;
38465;SDS011;24244;51.950;5.902;2023-07-02T11:23:46;4.75;;;1.75;;
38465;SDS011;24244;51.950;5.902;2023-07-02T11:26:13;4.38;;;1.65;;
38465;SDS011;24244;51.950;5.902;2023-07-02T11:28:49;4.85;;;2.00;;
38465;SDS011;24244;51.950;5.902;2023-07-02T11:31:26;5.28;;;1.67;;
38465;SDS011;24244;51.950;5.902;2023-07-02T11:33:57;3.83;;;1.55;;
38465;SDS011;24244;51.950;5.902;2023-07-02T11:36:24;4.55;;;1.40;;
38465;SDS011;24244;51.950;5.902;2023-07-02T11:38:51;4.25;;;1.60;;
38465;SDS011;24244;51.950;5.902;2023-07-02T11:41:19;4.00;;;1.30;;
38465;SDS011;24244;51.950;5.902;2023-07-02T11:43:47;4.93;;;1.58;;
38465;SDS011;24244;51.950;5.902;2023-07-02T11:46:14;4.35;;;1.45;;
38465;SDS011;24244;51.950;5.902;2023-07-02T11:48:41;5.63;;;2.03;;
38465;SDS011;24244;51.950;5.902;2023-07-02T11:51:12;4.90;;;1.60;;
38465;SDS011;24244;51.950;5.902;2023-07-02T11:53:38;4.03;;;1.60;;
38465;SDS011;24244;51.950;5.902;2023-07-02T11:56:05;3.85;;;1.20;;
38465;SDS011;24244;51.950;5.902;2023-07-02T11:58:32;3.35;;;1.25;;
38465;SDS011;24244;51.950;5.902;2023-07-02T12:00:59;6.22;;;1.83;;
38465;SDS011;24244;51.950;5.902;2023-07-02T12:03:26;3.03;;;1.30;;
38465;SDS011;24244;51.950;5.902;2023-07-02T12:05:53;4.38;;;1.45;;
38465;SDS011;24244;51.950;5.902;2023-07-02T12:08:21;3.10;;;1.50;;
38465;SDS011;24244;51.950;5.902;2023-07-02T12:10:48;5.78;;;1.90;;
38465;SDS011;24244;51.950;5.902;2023-07-02T12:13:15;3.95;;;1.27;;
38465;SDS011;24244;51.950;5.902;2023-07-02T12:15:42;3.53;;;1.35;;
38465;SDS011;24244;51.950;5.902;2023-07-02T12:18:09;4.30;;;1.85;;
38465;SDS011;24244;51.950;5.902;2023-07-02T12:20:36;3.20;;;1.58;;
38465;SDS011;24244;51.950;5.902;2023-07-02T12:23:04;5.03;;;1.80;;
38465;SDS011;24244;51.950;5.902;2023-07-02T12:25:33;3.35;;;1.67;;
38465;SDS011;24244;51.950;5.902;2023-07-02T12:28:01;4.40;;;1.38;;
38465;SDS011;24244;51.950;5.902;2023-07-02T12:30:28;3.17;;;1.30;;
38465;SDS011;24244;51.950;5.902;2023-07-02T12:32:54;5.22;;;1.92;;
38465;SDS011;24244;51.950;5.902;2023-07-02T12:35:21;5.25;;;1.85;;
38465;SDS011;24244;51.950;5.902;2023-07-02T12:37:49;4.60;;;1.95;;
38465;SDS011;24244;51.950;5.902;2023-07-02T12:40:17;3.85;;;1.60;;
38465;SDS011;24244;51.950;5.902;2023-07-02T12:42:46;4.38;;;1.40;;
38465;SDS011;24244;51.950;5.902;2023-07-02T12:45:14;4.43;;;1.70;;
38465;SDS011;24244;51.950;5.902;2023-07-02T12:47:45;4.70;;;1.60;;
38465;SDS011;24244;51.950;5.902;2023-07-02T12:50:12;3.80;;;1.73;;
38465;SDS011;24244;51.950;5.902;2023-07-02T12:52:38;4.63;;;1.73;;
38465;SDS011;24244;51.950;5.902;2023-07-02T12:55:05;4.15;;;1.33;;
38465;SDS011;24244;51.950;5.902;2023-07-02T12:57:34;4.03;;;1.58;;
38465;SDS011;24244;51.950;5.902;2023-07-02T13:00:02;4.57;;;1.60;;
38465;SDS011;24244;51.950;5.902;2023-07-02T13:02:32;4.10;;;1.73;;
38465;SDS011;24244;51.950;5.902;2023-07-02T13:04:59;5.82;;;1.88;;
38465;SDS011;24244;51.950;5.902;2023-07-02T13:07:26;6.15;;;2.03;;
38465;SDS011;24244;51.950;5.902;2023-07-02T13:09:56;4.18;;;1.50;;
38465;SDS011;24244;51.950;5.902;2023-07-02T13:12:23;3.80;;;1.48;;
38465;SDS011;24244;51.950;5.902;2023-07-02T13:14:50;3.38;;;1.10;;
38465;SDS011;24244;51.950;5.902;2023-07-02T13:17:18;4.07;;;1.17;;
38465;SDS011;24244;51.950;5.902;2023-07-02T13:19:44;3.72;;;1.20;;
38465;SDS011;24244;51.950;5.902;2023-07-02T13:22:11;4.10;;;1.40;;
38465;SDS011;24244;51.950;5.902;2023-07-02T13:24:38;3.83;;;1.40;;
38465;SDS011;24244;51.950;5.902;2023-07-02T13:27:07;3.75;;;1.20;;
38465;SDS011;24244;51.950;5.902;2023-07-02T13:29:37;4.20;;;1.80;;
38465;SDS011;24244;51.950;5.902;2023-07-02T13:32:04;3.28;;;1.25;;
38465;SDS011;24244;51.950;5.902;2023-07-02T13:34:33;2.97;;;1.10;;
38465;SDS011;24244;51.950;5.902;2023-07-02T13:37:00;3.42;;;1.40;;
38465;SDS011;24244;51.950;5.902;2023-07-02T13:39:29;3.83;;;1.50;;
38465;SDS011;24244;51.950;5.902;2023-07-02T13:41:56;3.60;;;1.42;;
38465;SDS011;24244;51.950;5.902;2023-07-02T13:44:23;3.63;;;1.83;;
38465;SDS011;24244;51.950;5.902;2023-07-02T13:46:50;5.22;;;1.50;;
38465;SDS011;24244;51.950;5.902;2023-07-02T13:49:17;4.70;;;1.50;;
38465;SDS011;24244;51.950;5.902;2023-07-02T13:51:45;3.83;;;1.10;;
38465;SDS011;24244;51.950;5.902;2023-07-02T13:54:12;3.58;;;1.25;;
38465;SDS011;24244;51.950;5.902;2023-07-02T13:56:40;5.18;;;1.55;;
38465;SDS011;24244;51.950;5.902;2023-07-02T13:59:08;5.97;;;1.63;;
38465;SDS011;24244;51.950;5.902;2023-07-02T14:01:35;3.92;;;1.40;;
38465;SDS011;24244;51.950;5.902;2023-07-02T14:04:02;3.95;;;1.15;;
38465;SDS011;24244;51.950;5.902;2023-07-02T14:06:30;5.03;;;1.42;;
38465;SDS011;24244;51.950;5.902;2023-07-02T14:08:57;5.45;;;1.63;;
38465;SDS011;24244;51.950;5.902;2023-07-02T14:11:24;4.88;;;1.70;;
38465;SDS011;24244;51.950;5.902;2023-07-02T14:13:54;3.92;;;1.55;;
38465;SDS011;24244;51.950;5.902;2023-07-02T14:16:22;4.60;;;1.60;;
38465;SDS011;24244;51.950;5.902;2023-07-02T14:18:50;5.72;;;1.90;;
38465;SDS011;24244;51.950;5.902;2023-07-02T14:21:17;3.95;;;1.90;;
38465;SDS011;24244;51.950;5.902;2023-07-02T14:23:44;4.85;;;1.88;;
38465;SDS011;24244;51.950;5.902;2023-07-02T14:26:11;5.38;;;1.50;;
38465;SDS011;24244;51.950;5.902;2023-07-02T14:28:38;4.25;;;1.75;;
38465;SDS011;24244;51.950;5.902;2023-07-02T14:31:05;4.95;;;1.80;;
38465;SDS011;24244;51.950;5.902;2023-07-02T14:33:35;5.03;;;1.60;;
38465;SDS011;24244;51.950;5.902;2023-07-02T14:36:04;4.22;;;1.48;;
38465;SDS011;24244;51.950;5.902;2023-07-02T14:38:32;5.40;;;1.73;;
38465;SDS011;24244;51.950;5.902;2023-07-02T14:40:59;4.88;;;1.80;;
38465;SDS011;24244;51.950;5.902;2023-07-02T14:43:28;3.05;;;1.10;;
38465;SDS011;24244;51.950;5.902;2023-07-02T14:45:56;3.58;;;1.40;;
38465;SDS011;24244;51.950;5.902;2023-07-02T14:48:24;4.95;;;1.65;;
38465;SDS011;24244;51.950;5.902;2023-07-02T14:50:53;5.38;;;1.88;;
38465;SDS011;24244;51.950;5.902;2023-07-02T14:53:21;3.47;;;1.40;;
38465;SDS011;24244;51.950;5.902;2023-07-02T14:55:48;5.68;;;1.73;;